createdAt,value
2019-05-20T00:00:06.078Z,4.77
2019-05-20T00:02:34.478Z,3.83
2019-05-20T00:05:02.953Z,3.50
2019-05-20T00:07:31.356Z,4.80
2019-05-20T00:09:59.738Z,4.90
2019-05-20T00:12:28.819Z,4.70
2019-05-20T00:14:57.220Z,4.20
2019-05-20T00:17:25.643Z,4.77
2019-05-20T00:19:54.028Z,4.33
2019-05-20T00:22:22.422Z,3.73
2019-05-20T00:24:50.882Z,4.37
2019-05-20T00:27:19.287Z,4.13
2019-05-20T00:29:47.683Z,3.90
2019-05-20T00:32:16.450Z,4.40
2019-05-20T00:34:44.905Z,3.70
2019-05-20T00:37:13.337Z,4.20
2019-05-20T00:39:41.728Z,4.00
2019-05-20T00:42:10.125Z,4.47
2019-05-20T00:44:39.567Z,4.07
2019-05-20T00:47:07.965Z,4.30
2019-05-20T00:49:36.362Z,3.97
2019-05-20T00:52:04.787Z,3.70
2019-05-20T00:54:33.271Z,3.80
2019-05-20T00:57:01.677Z,4.07
2019-05-20T00:59:30.088Z,4.17
2019-05-20T01:01:58.478Z,3.77
2019-05-20T01:04:26.892Z,3.33
2019-05-20T01:06:55.347Z,3.27
2019-05-20T01:09:23.742Z,2.57
2019-05-20T01:11:52.140Z,2.73
2019-05-20T01:14:20.548Z,2.77
2019-05-20T01:16:49.805Z,2.23
2019-05-20T01:19:18.211Z,3.10
2019-05-20T01:21:46.598Z,2.97
2019-05-20T01:24:15.070Z,2.70
2019-05-20T01:26:43.538Z,2.93
2019-05-20T01:29:11.948Z,3.60
2019-05-20T01:31:40.346Z,3.50
2019-05-20T01:34:08.756Z,3.30
2019-05-20T01:36:37.145Z,3.00
2019-05-20T01:39:06.994Z,2.90
2019-05-20T01:41:35.390Z,3.13
2019-05-20T01:44:03.868Z,3.80
2019-05-20T01:46:32.250Z,4.30
2019-05-20T01:49:00.650Z,4.03
2019-05-20T01:51:29.045Z,4.57
2019-05-20T01:53:57.446Z,3.30
2019-05-20T01:56:25.850Z,4.30
2019-05-20T01:58:54.265Z,4.30
2019-05-20T02:01:22.668Z,4.27
2019-05-20T02:03:51.070Z,4.37
2019-05-20T02:06:19.460Z,3.50
2019-05-20T02:08:47.877Z,3.63
2019-05-20T02:11:16.271Z,2.97
2019-05-20T02:13:52.194Z,3.80
2019-05-20T02:16:22.589Z,3.40
2019-05-20T02:18:51.002Z,4.93
2019-05-20T02:21:19.407Z,3.13
2019-05-20T02:23:47.794Z,3.30
2019-05-20T02:26:16.186Z,2.60
2019-05-20T02:28:44.591Z,2.67
2019-05-20T02:31:12.999Z,2.87
2019-05-20T02:33:51.955Z,3.20
2019-05-20T02:36:11.593Z,3.10
2019-05-20T02:38:40.010Z,2.80
2019-05-20T02:41:08.399Z,3.10
2019-05-20T02:43:36.788Z,3.37
2019-05-20T02:46:05.931Z,2.97
2019-05-20T02:48:34.318Z,2.83
2019-05-20T02:51:02.730Z,3.20
2019-05-20T02:53:31.133Z,3.13
2019-05-20T02:55:59.544Z,3.93
2019-05-20T02:58:27.955Z,4.00
2019-05-20T03:00:56.359Z,3.97
2019-05-20T03:03:24.742Z,3.70
2019-05-20T03:05:53.157Z,4.13
2019-05-20T03:08:21.603Z,4.30
2019-05-20T03:10:50.011Z,3.93
2019-05-20T03:13:18.396Z,4.47
2019-05-20T03:15:46.822Z,4.47
2019-05-20T03:18:15.221Z,4.70
2019-05-20T03:20:43.607Z,4.20
2019-05-20T03:23:12.019Z,4.20
2019-05-20T03:25:40.454Z,4.40
2019-05-20T03:28:08.899Z,4.90
2019-05-20T03:30:37.313Z,4.00
2019-05-20T03:33:05.707Z,4.40
2019-05-20T03:35:34.115Z,5.03
2019-05-20T03:38:02.509Z,5.00
2019-05-20T03:40:30.937Z,5.50
2019-05-20T03:42:59.383Z,5.57
2019-05-20T03:45:27.817Z,5.33
2019-05-20T03:47:56.199Z,5.10
2019-05-20T03:50:24.613Z,5.40
2019-05-20T03:52:53.072Z,5.60
2019-05-20T03:55:22.259Z,5.40
2019-05-20T03:57:50.651Z,5.27
2019-05-20T04:00:22.148Z,5.40
2019-05-20T04:02:51.460Z,5.77
2019-05-20T04:05:19.871Z,5.90
2019-05-20T04:07:48.253Z,5.53
2019-05-20T04:10:16.710Z,6.10
2019-05-20T04:12:45.115Z,5.43
2019-05-20T04:15:13.599Z,4.93
2019-05-20T04:17:41.995Z,4.83
2019-05-20T04:20:10.456Z,6.10
2019-05-20T04:22:38.881Z,4.93
2019-05-20T04:25:07.489Z,5.67
2019-05-20T04:27:35.913Z,5.60
2019-05-20T04:30:06.665Z,6.03
2019-05-20T04:32:35.119Z,6.23
2019-05-20T04:35:20.407Z,5.50
2019-05-20T04:37:33.802Z,5.50
2019-05-20T04:40:02.202Z,4.73
2019-05-20T04:42:30.730Z,4.47
2019-05-20T04:44:59.121Z,5.17
2019-05-20T04:47:27.533Z,4.60
2019-05-20T04:49:56.269Z,5.00
2019-05-20T04:52:24.697Z,4.37
2019-05-20T04:54:53.092Z,4.63
2019-05-20T04:57:21.509Z,3.67
2019-05-20T04:59:49.977Z,4.40
2019-05-20T05:02:18.384Z,4.30
2019-05-20T05:04:46.785Z,3.67
2019-05-20T05:07:15.326Z,4.37
2019-05-20T05:09:43.805Z,4.53
2019-05-20T05:12:12.224Z,4.80
2019-05-20T05:14:40.713Z,5.20
2019-05-20T05:17:09.164Z,5.63
2019-05-20T05:19:37.621Z,6.00
2019-05-20T05:22:06.018Z,5.50
2019-05-20T05:24:34.427Z,5.80
2019-05-20T05:27:02.965Z,4.90
2019-05-20T05:29:31.368Z,4.50
2019-05-20T05:31:59.841Z,4.90
2019-05-20T05:34:28.248Z,4.00
2019-05-20T05:36:56.650Z,4.43
2019-05-20T05:39:25.043Z,5.07
2019-05-20T05:41:53.447Z,4.20
2019-05-20T05:44:21.848Z,5.00
2019-05-20T05:46:50.252Z,4.40
2019-05-20T05:49:18.652Z,4.47
2019-05-20T05:51:47.117Z,4.57
2019-05-20T05:54:15.527Z,4.33
2019-05-20T05:56:43.951Z,4.90
2019-05-20T05:59:12.467Z,4.77
2019-05-20T06:01:40.870Z,4.90
2019-05-20T06:04:09.281Z,5.10
2019-05-20T06:06:37.666Z,6.20
2019-05-20T06:09:07.217Z,5.30
2019-05-20T06:11:35.613Z,5.30
2019-05-20T06:14:04.085Z,5.70
2019-05-20T06:16:36.663Z,5.33
2019-05-20T06:19:02.640Z,5.50
2019-05-20T06:21:31.102Z,5.40
2019-05-20T06:23:59.567Z,5.10
2019-05-20T06:26:28.028Z,4.77
2019-05-20T06:28:56.422Z,5.13
2019-05-20T06:31:24.825Z,5.43
2019-05-20T06:33:53.557Z,5.70
2019-05-20T06:36:27.001Z,5.70
2019-05-20T06:38:53.885Z,5.80
2019-05-20T06:41:22.352Z,5.43
2019-05-20T06:43:50.755Z,6.70
2019-05-20T06:46:19.238Z,7.00
2019-05-20T06:48:47.643Z,7.83
2019-05-20T06:51:16.056Z,7.80
2019-05-20T06:53:44.464Z,9.10
2019-05-20T06:56:12.873Z,11.10
2019-05-20T06:58:41.282Z,10.03
2019-05-20T07:01:09.697Z,11.57
2019-05-20T07:03:38.131Z,13.67
2019-05-20T07:06:06.524Z,15.30
2019-05-20T07:08:34.931Z,15.73
2019-05-20T07:11:03.351Z,15.53
2019-05-20T07:13:31.747Z,16.80
2019-05-20T07:16:00.157Z,15.53
2019-05-20T07:18:28.545Z,15.57
2019-05-20T07:20:56.974Z,16.70
2019-05-20T07:23:25.378Z,16.70
2019-05-20T07:25:53.792Z,16.97
2019-05-20T07:28:22.830Z,17.27
2019-05-20T07:30:51.249Z,17.83
2019-05-20T07:33:19.671Z,18.17
2019-05-20T07:35:48.071Z,16.83
2019-05-20T07:38:16.482Z,18.83
2019-05-20T07:40:44.897Z,17.13
2019-05-20T07:43:13.369Z,16.07
2019-05-20T07:45:42.238Z,18.20
2019-05-20T07:48:10.691Z,17.43
2019-05-20T07:50:40.177Z,17.80
2019-05-20T07:53:10.245Z,17.77
2019-05-20T07:55:56.691Z,16.83
2019-05-20T07:58:27.847Z,17.00
2019-05-20T08:00:56.268Z,17.03
2019-05-20T08:03:24.723Z,16.80
2019-05-20T08:05:53.153Z,15.20
2019-05-20T08:08:21.717Z,17.07
2019-05-20T08:10:50.183Z,16.10
2019-05-20T08:13:18.583Z,15.37
2019-05-20T08:15:47.013Z,16.33
2019-05-20T08:18:15.440Z,15.87
2019-05-20T08:20:43.927Z,15.43
2019-05-20T08:23:12.340Z,18.10
2019-05-20T08:25:40.813Z,16.60
2019-05-20T08:28:09.300Z,17.27
2019-05-20T08:30:38.875Z,15.47
2019-05-20T08:33:08.212Z,16.47
2019-05-20T08:35:36.707Z,16.43
2019-05-20T08:38:05.174Z,16.70
2019-05-20T08:40:33.596Z,16.53
2019-05-20T08:43:02.007Z,15.90
2019-05-20T08:45:30.432Z,17.30
2019-05-20T08:47:58.893Z,17.17
2019-05-20T08:50:27.442Z,20.80
2019-05-20T08:52:56.002Z,19.80
2019-05-20T08:55:24.495Z,18.63
2019-05-20T08:57:52.943Z,20.93
2019-05-20T09:00:24.222Z,20.50
2019-05-20T09:02:53.329Z,18.27
2019-05-20T09:05:21.724Z,19.70
2019-05-20T09:08:02.367Z,19.70
2019-05-20T09:10:20.309Z,18.30
2019-05-20T09:12:48.725Z,18.77
2019-05-20T09:15:17.266Z,20.27
2019-05-20T09:17:45.693Z,19.53
2019-05-20T09:20:14.435Z,20.50
2019-05-20T09:22:42.860Z,20.87
2019-05-20T09:25:11.888Z,19.67
2019-05-20T09:27:40.383Z,19.70
2019-05-20T09:30:09.656Z,19.53
2019-05-20T09:32:42.617Z,20.10
2019-05-20T09:35:10.319Z,20.70
2019-05-20T09:37:38.908Z,19.83
2019-05-20T09:40:08.372Z,19.87
2019-05-20T09:42:40.627Z,18.20
2019-05-20T09:45:07.173Z,20.40
2019-05-20T09:47:35.739Z,20.00
2019-05-20T09:50:04.995Z,19.40
2019-05-20T09:52:33.389Z,20.50
2019-05-20T09:55:01.931Z,20.83
2019-05-20T09:57:30.510Z,21.37
2019-05-20T09:59:58.917Z,21.17
2019-05-20T10:02:34.531Z,21.70
2019-05-20T10:04:57.539Z,20.37
2019-05-20T10:07:25.956Z,22.70
2019-05-20T10:09:56.306Z,20.77
2019-05-20T10:12:44.255Z,19.60
2019-05-20T10:14:54.957Z,20.73
2019-05-20T10:17:23.442Z,20.43
2019-05-20T10:19:51.907Z,22.17
2019-05-20T10:22:20.310Z,22.83
2019-05-20T10:24:48.717Z,21.67
2019-05-20T10:27:17.136Z,21.93
2019-05-20T10:29:45.530Z,22.43
2019-05-20T10:32:13.942Z,24.30
2019-05-20T10:34:42.357Z,23.87
2019-05-20T10:37:10.772Z,26.07
2019-05-20T10:39:39.180Z,27.80
2019-05-20T10:42:07.601Z,25.80
2019-05-20T10:44:36.024Z,26.70
2019-05-20T10:47:04.483Z,26.50
2019-05-20T10:49:32.960Z,26.57
2019-05-20T10:52:01.369Z,28.50
2019-05-20T10:54:29.796Z,28.40
2019-05-20T10:56:59.733Z,29.40
2019-05-20T10:59:28.324Z,28.07
2019-05-20T11:01:56.768Z,28.93
2019-05-20T11:04:25.242Z,26.60
2019-05-20T11:06:53.703Z,27.13
2019-05-20T11:09:22.126Z,29.50
2019-05-20T11:11:50.531Z,27.60
2019-05-20T11:14:18.941Z,28.87
2019-05-20T11:16:47.360Z,28.27
2019-05-20T11:19:15.783Z,30.57
2019-05-20T11:21:44.163Z,29.53
2019-05-20T11:24:12.566Z,27.77
2019-05-20T11:26:41.020Z,28.90
2019-05-20T11:29:09.476Z,28.57
2019-05-20T11:31:37.887Z,29.40
2019-05-20T11:34:06.295Z,30.20
2019-05-20T11:36:34.699Z,29.23
2019-05-20T11:39:07.250Z,30.63
2019-05-20T11:44:05.249Z,32.50
2019-05-20T11:46:33.651Z,33.97
2019-05-20T11:49:02.058Z,33.90
2019-05-20T11:51:30.446Z,34.80
2019-05-20T11:53:58.878Z,33.53
2019-05-20T11:56:27.352Z,34.63
2019-05-20T11:58:55.770Z,34.63
2019-05-20T12:01:24.178Z,34.97
2019-05-20T12:03:52.595Z,34.00
2019-05-20T12:06:20.982Z,36.73
2019-05-20T12:08:49.378Z,36.37
2019-05-20T12:11:17.797Z,35.00
2019-05-20T12:13:46.199Z,34.10
2019-05-20T12:16:14.615Z,35.70
2019-05-20T12:18:45.096Z,35.30
2019-05-20T12:21:13.228Z,34.27
2019-05-20T12:23:41.653Z,32.90
2019-05-20T12:26:10.153Z,35.37
2019-05-20T12:28:38.613Z,35.43
2019-05-20T12:31:07.029Z,34.17
2019-05-20T12:33:35.418Z,32.17
2019-05-20T12:36:04.472Z,33.57
2019-05-20T12:38:32.868Z,33.37
2019-05-20T12:41:01.456Z,32.30
2019-05-20T12:43:29.875Z,32.33
2019-05-20T12:45:58.303Z,33.97
2019-05-20T12:48:26.721Z,31.07
2019-05-20T12:50:55.114Z,34.27
2019-05-20T12:53:23.516Z,32.93
2019-05-20T12:55:51.914Z,32.97
2019-05-20T12:58:20.336Z,33.13
2019-05-20T13:00:48.744Z,31.47
2019-05-20T13:03:17.237Z,33.27
2019-05-20T13:05:45.640Z,33.40
2019-05-20T13:08:14.065Z,31.07
2019-05-20T13:10:42.563Z,32.67
2019-05-20T13:13:10.971Z,34.80
2019-05-20T13:15:39.376Z,32.40
2019-05-20T13:18:07.782Z,31.87
2019-05-20T13:20:36.189Z,31.07
2019-05-20T13:23:07.218Z,31.50
2019-05-20T13:25:34.989Z,30.77
2019-05-20T13:28:03.403Z,29.77
2019-05-20T13:30:31.799Z,29.97
2019-05-20T13:33:00.208Z,29.70
2019-05-20T13:35:28.594Z,31.83
2019-05-20T13:37:57.007Z,30.87
2019-05-20T13:40:25.414Z,31.20
2019-05-20T13:42:53.811Z,31.60
2019-05-20T13:45:22.474Z,30.17
2019-05-20T13:47:50.899Z,31.53
2019-05-20T13:50:19.437Z,29.60
2019-05-20T13:52:47.930Z,31.57
2019-05-20T13:55:16.393Z,30.90
2019-05-20T13:57:44.824Z,29.93
2019-05-20T14:00:13.959Z,30.23
2019-05-20T14:02:42.374Z,30.83
2019-05-20T14:05:11.525Z,31.80
2019-05-20T14:07:39.948Z,31.30
2019-05-20T14:10:08.787Z,30.30
2019-05-20T14:12:37.216Z,33.07
2019-05-20T14:15:06.546Z,31.33
2019-05-20T14:17:35.027Z,30.20
2019-05-20T14:20:03.855Z,30.17
2019-05-20T14:22:32.311Z,31.90
2019-05-20T14:25:00.704Z,32.40
2019-05-20T14:27:29.105Z,31.80
2019-05-20T14:29:57.516Z,32.03
2019-05-20T14:32:25.935Z,31.07
2019-05-20T14:34:54.344Z,32.17
2019-05-20T14:37:23.460Z,32.17
2019-05-20T14:39:52.007Z,30.90
2019-05-20T14:42:20.468Z,30.90
2019-05-20T14:44:48.907Z,29.97
2019-05-20T14:47:17.338Z,28.20
2019-05-20T14:49:45.729Z,28.87
2019-05-20T14:52:14.149Z,28.33
2019-05-20T14:54:42.554Z,26.80
2019-05-20T14:57:10.979Z,29.00
2019-05-20T14:59:39.399Z,25.93
2019-05-20T15:02:07.851Z,26.60
2019-05-20T15:04:36.260Z,28.10
2019-05-20T15:07:04.829Z,27.80
2019-05-20T15:09:33.262Z,28.80
2019-05-20T15:12:01.762Z,26.80
2019-05-20T15:14:30.233Z,27.13
2019-05-20T15:16:58.626Z,28.10
2019-05-20T15:19:27.044Z,27.17
2019-05-20T15:21:55.443Z,28.43
2019-05-20T15:24:23.863Z,30.30
2019-05-20T15:26:52.399Z,30.20
2019-05-20T15:29:27.890Z,30.87
2019-05-20T15:31:50.988Z,31.83
2019-05-20T15:34:19.411Z,31.03
2019-05-20T15:36:47.840Z,31.60
2019-05-20T15:39:16.382Z,32.07
2019-05-20T15:41:44.909Z,32.13
2019-05-20T15:44:13.366Z,32.07
2019-05-20T15:46:41.795Z,31.47
2019-05-20T15:49:10.200Z,32.63
2019-05-20T15:51:38.593Z,33.27
2019-05-20T15:54:07.027Z,34.00
2019-05-20T15:56:35.581Z,34.87
2019-05-20T15:59:05.004Z,31.00
2019-05-20T16:01:33.482Z,32.97
2019-05-20T16:04:01.917Z,32.20
2019-05-20T16:06:30.318Z,31.73
2019-05-20T16:08:58.758Z,34.00
2019-05-20T16:11:27.259Z,33.13
2019-05-20T16:13:55.721Z,30.67
2019-05-20T16:16:24.118Z,30.60
2019-05-20T16:18:52.569Z,29.47
2019-05-20T16:21:20.971Z,28.07
2019-05-20T16:23:49.723Z,28.60
2019-05-20T16:26:18.118Z,29.70
2019-05-20T16:28:46.547Z,26.60
2019-05-20T16:31:14.939Z,27.50
2019-05-20T16:33:43.341Z,25.73
2019-05-20T16:36:11.818Z,27.00
2019-05-20T16:38:40.240Z,28.43
2019-05-20T16:41:08.633Z,23.83
2019-05-20T16:43:37.042Z,23.87
2019-05-20T16:46:05.447Z,21.50
2019-05-20T16:48:33.855Z,23.30
2019-05-20T16:51:02.259Z,24.87
2019-05-20T16:53:30.734Z,24.20
2019-05-20T16:55:59.131Z,25.40
2019-05-20T16:58:27.562Z,25.27
2019-05-20T17:00:55.957Z,24.70
2019-05-20T17:03:24.409Z,24.67
2019-05-20T17:05:52.796Z,26.80
2019-05-20T17:08:21.204Z,25.87
2019-05-20T17:10:49.607Z,26.30
2019-05-20T17:13:18.043Z,25.57
2019-05-20T17:15:46.434Z,26.53
2019-05-20T17:18:14.837Z,26.03
2019-05-20T17:20:46.329Z,27.80
2019-05-20T17:23:14.333Z,28.40
2019-05-20T17:25:42.739Z,29.23
2019-05-20T17:28:11.152Z,31.30
2019-05-20T17:30:45.405Z,31.83
2019-05-20T17:33:09.830Z,33.40
2019-05-20T17:35:38.326Z,35.83
2019-05-20T17:38:06.796Z,32.97
2019-05-20T17:40:35.266Z,37.13
2019-05-20T17:43:04.150Z,36.77
2019-05-20T17:45:32.595Z,37.23
2019-05-20T17:48:01.009Z,35.63
2019-05-20T17:50:29.438Z,41.80
2019-05-20T17:52:57.879Z,37.77
2019-05-20T17:55:26.468Z,40.57
2019-05-20T17:57:54.917Z,37.47
2019-05-20T18:00:23.542Z,39.60
2019-05-20T18:02:52.182Z,37.87
2019-05-20T18:05:20.678Z,41.80
2019-05-20T18:07:49.131Z,40.00
2019-05-20T18:10:19.371Z,37.50
2019-05-20T18:12:47.787Z,38.40
2019-05-20T18:15:17.357Z,40.73
2019-05-20T18:17:45.745Z,41.07
2019-05-20T18:20:14.404Z,41.97
2019-05-20T18:22:42.799Z,41.97
2019-05-20T18:25:11.658Z,44.13
2019-05-20T18:27:40.354Z,42.50
2019-05-20T18:30:09.307Z,43.43
2019-05-20T18:32:38.610Z,42.00
2019-05-20T18:35:07.526Z,42.80
2019-05-20T18:37:35.914Z,41.90
2019-05-20T18:40:13.931Z,41.27
2019-05-20T18:42:35.678Z,41.67
2019-05-20T18:45:05.929Z,42.13
2019-05-20T18:47:34.332Z,45.30
2019-05-20T18:50:03.525Z,43.80
2019-05-20T18:52:31.914Z,46.13
2019-05-20T18:55:00.341Z,47.17
2019-05-20T18:57:28.744Z,45.93
2019-05-20T18:59:57.155Z,45.13
2019-05-20T19:02:25.538Z,47.07
2019-05-20T19:04:53.975Z,47.53
2019-05-20T19:07:22.353Z,48.77
2019-05-20T19:09:50.776Z,51.70
2019-05-20T19:12:19.443Z,50.73
2019-05-20T19:14:47.960Z,52.10
2019-05-20T19:17:16.387Z,52.40
2019-05-20T19:19:44.793Z,50.17
2019-05-20T19:22:13.193Z,55.67
2019-05-20T19:24:41.620Z,56.93
2019-05-20T19:27:10.582Z,53.20
2019-05-20T19:29:38.998Z,54.43
2019-05-20T19:32:07.720Z,58.10
2019-05-20T19:34:36.120Z,55.60
2019-05-20T19:37:04.533Z,57.33
2019-05-20T19:39:32.949Z,59.00
2019-05-20T19:42:01.381Z,58.80
2019-05-20T19:44:29.778Z,59.60
2019-05-20T19:46:58.201Z,59.20
2019-05-20T19:49:26.608Z,59.30
2019-05-20T19:51:55.090Z,59.10
2019-05-20T19:54:23.514Z,59.97
2019-05-20T19:56:52.029Z,61.90
2019-05-20T19:59:20.467Z,61.50
2019-05-20T20:01:48.903Z,59.80
2019-05-20T20:04:17.333Z,60.97
2019-05-20T20:06:45.788Z,64.07
2019-05-20T20:09:14.265Z,60.80
2019-05-20T20:11:42.744Z,57.87
2019-05-20T20:14:11.202Z,56.63
2019-05-20T20:16:39.740Z,56.70
2019-05-20T20:19:08.198Z,58.70
2019-05-20T20:21:36.642Z,60.13
2019-05-20T20:24:05.223Z,53.70
2019-05-20T20:26:33.631Z,52.90
2019-05-20T20:29:02.040Z,60.13
2019-05-20T20:31:30.439Z,58.20
2019-05-20T20:33:58.838Z,59.90
2019-05-20T20:36:27.265Z,49.90
2019-05-20T20:38:55.667Z,51.37
2019-05-20T20:41:24.079Z,53.20
2019-05-20T20:43:52.486Z,50.47
2019-05-20T20:46:20.873Z,50.10
2019-05-20T20:48:49.295Z,54.13
2019-05-20T20:51:17.690Z,54.53
2019-05-20T20:53:46.138Z,57.97
2019-05-20T20:56:24.643Z,55.53
2019-05-20T20:58:44.693Z,56.07
2019-05-20T21:01:13.138Z,50.77
2019-05-20T21:03:41.577Z,49.67
2019-05-20T21:06:10.043Z,50.50
2019-05-20T21:08:38.450Z,49.30
2019-05-20T21:11:06.846Z,47.27
2019-05-20T21:13:35.276Z,45.63
2019-05-20T21:16:03.737Z,43.73
2019-05-20T21:18:32.156Z,46.30
2019-05-20T21:21:00.557Z,45.53
2019-05-20T21:23:28.966Z,44.77
2019-05-20T21:25:57.366Z,44.47
2019-05-20T21:28:25.837Z,42.53
2019-05-20T21:30:54.244Z,43.53
2019-05-20T21:33:22.675Z,42.77
2019-05-20T21:35:51.071Z,45.03
2019-05-20T21:38:19.497Z,43.23
2019-05-20T21:40:47.909Z,43.97
2019-05-20T21:43:16.309Z,43.50
2019-05-20T21:45:44.719Z,44.70
2019-05-20T21:48:13.130Z,44.10
2019-05-20T21:50:41.532Z,45.83
2019-05-20T21:53:09.944Z,45.10
2019-05-20T21:55:38.355Z,44.07
2019-05-20T21:58:06.783Z,45.77
2019-05-20T22:00:36.974Z,42.30
2019-05-20T22:03:05.462Z,48.93
2019-05-20T22:05:33.937Z,40.93
2019-05-20T22:08:04.257Z,42.90
2019-05-20T22:10:32.483Z,45.27
2019-05-20T22:13:00.902Z,41.87
2019-05-20T22:15:29.294Z,42.97
2019-05-20T22:17:57.695Z,44.80
2019-05-20T22:20:26.094Z,46.70
2019-05-20T22:23:02.148Z,49.00
2019-05-20T22:25:30.545Z,45.57
2019-05-20T22:27:58.954Z,48.43
2019-05-20T22:30:27.374Z,44.27
2019-05-20T22:32:55.785Z,44.47
2019-05-20T22:35:24.181Z,45.17
2019-05-20T22:37:52.584Z,45.23
2019-05-20T22:40:21.004Z,45.40
2019-05-20T22:42:49.399Z,45.90
2019-05-20T22:45:17.810Z,44.77
2019-05-20T22:47:46.215Z,46.40
2019-05-20T22:50:14.627Z,45.27
2019-05-20T22:52:43.029Z,43.13
2019-05-20T22:55:11.588Z,46.23
2019-05-20T22:57:39.992Z,45.30
2019-05-20T23:00:09.241Z,43.30
2019-05-20T23:02:37.648Z,43.20
2019-05-20T23:05:06.148Z,45.37
2019-05-20T23:07:34.570Z,45.13
2019-05-20T23:10:04.299Z,42.93
2019-05-20T23:12:32.703Z,45.07
2019-05-20T23:15:01.131Z,41.00
2019-05-20T23:17:29.523Z,41.70
2019-05-20T23:19:57.959Z,42.07
2019-05-20T23:22:26.422Z,39.70
2019-05-20T23:24:54.834Z,41.67
2019-05-20T23:27:23.254Z,40.00
2019-05-20T23:29:51.657Z,41.73
2019-05-20T23:32:20.062Z,40.10
2019-05-20T23:34:48.476Z,39.80
2019-05-20T23:37:16.891Z,36.93
2019-05-20T23:39:45.299Z,37.90
2019-05-20T23:42:13.694Z,38.67
2019-05-20T23:44:42.125Z,36.27
2019-05-20T23:47:10.518Z,33.83
2019-05-20T23:49:38.943Z,35.10
2019-05-20T23:52:07.425Z,36.87
2019-05-20T23:54:35.830Z,34.57
2019-05-20T23:57:05.171Z,35.83
2019-05-20T23:59:33.582Z,33.97
